Latest Weather Observations for Roma

IDQ60801

Issued at 3:05 pm EST Friday 18 April 2014 (issued every 30 minutes, with the page automatically refreshed every 10 minutes)

About weather observations | Map of weather stations | Latest weather observations for QLD | Other Formats
Station Details ID: 043091 Name: ROMA AIRPORT Lat: -26.55 Lon: 148.77 Height: 307.38 m
Data from the previous 72 hours. | See also: Recent months at Roma
Date/Time
EST
Temp
°C
App
Temp
°C
Dew
Point
Rel
Hum
%
Delta-T
°C
Wind Press
QNH
hPa
Press
MSL
hPa
Rain
since 9 am
mm
Dir
 
Spd
km/h
Gust
km/h
Spd
kts
Gust
kts
18/03:00pm 26.5 21.4 3.1 22 11.7 SSW 19 28 10 15 1016.1 1014.6 0.0
18/02:30pm 26.1 21.6 4.0 24 11.2 SSW 17 28 9 15 1016.3 - 0.0
18/02:00pm 26.3 22.3 4.7 25 11.1 SSW 15 22 8 12 1016.7 - 0.0
18/01:30pm 26.1 22.3 4.0 24 11.2 SW 13 22 7 12 1016.9 - 0.0
18/01:00pm 24.9 21.3 5.2 28 10.1 S 13 20 7 11 1017.3 - 0.0
18/12:30pm 25.3 21.7 5.0 27 10.4 WSW 13 22 7 12 1017.8 - 0.0
18/12:00pm 25.3 21.4 5.5 28 10.2 SSW 15 22 8 12 1018.2 1016.6 0.0
18/11:30am 24.6 21.6 5.9 30 9.7 SSW 11 19 6 10 1018.6 - 0.0
18/11:00am 24.0 19.9 4.4 28 9.9 S 15 24 8 13 1019.1 - 0.0
18/10:30am 23.9 21.7 6.2 32 9.2 ESE 7 13 4 7 1019.3 - 0.0
18/10:00am 22.8 20.8 6.1 34 8.6 NE 6 11 3 6 1019.5 - 0.0
18/09:30am 21.5 19.7 7.0 39 7.5 ENE 6 11 3 6 1019.8 - 0.0
18/09:00am 19.6 18.9 8.6 49 5.8 N 2 7 1 4 1020.0 1018.5 0.0
18/08:30am 18.3 18.4 10.2 59 4.4 N 0 0 0 0 1020.0 - 0.0
18/08:00am 15.5 15.3 10.3 71 2.8 NNE 2 6 1 3 1019.9 - 0.0
18/07:30am 11.9 10.4 9.3 84 1.3 N 7 9 4 5 1019.9 - 0.0
18/07:00am 8.7 8.1 7.2 90 0.7 CALM 0 6 0 3 1019.6 - 0.0
18/06:30am 7.7 5.6 6.0 89 0.8 N 6 7 3 4 1019.3 - 0.0
18/06:00am 8.0 6.1 6.8 92 0.6 N 6 7 3 4 1019.1 1017.6 0.0
18/05:30am 7.7 6.5 6.3 91 0.6 S 2 7 1 4 1019.0 - 0.0
18/05:00am 7.4 6.0 5.5 88 0.9 SSW 2 7 1 4 1018.7 - 0.0
18/04:30am 9.2 7.4 7.8 91 0.7 N 7 7 4 4 1018.5 - 0.0
18/04:00am 9.2 7.4 8.0 92 0.6 N 7 9 4 5 1018.3 - 0.0
18/03:30am 9.2 7.4 7.2 87 1.0 NNE 6 7 3 4 1018.3 - 0.0
18/03:00am 10.1 8.6 8.4 89 0.8 NNE 6 7 3 4 1018.4 1016.9 0.0
18/02:30am 9.6 7.7 7.5 87 1.0 N 7 9 4 5 1018.6 - 0.0
18/02:00am 10.6 9.0 8.0 84 1.3 N 6 7 3 4 1018.6 - 0.0
18/01:30am 11.0 9.3 8.2 83 1.4 N 7 9 4 5 1018.8 - 0.0
18/01:00am 11.3 10.6 8.5 83 1.4 W 2 9 1 5 1019.0 - 0.0
18/12:30am 11.9 11.5 8.2 78 1.8 CALM 0 0 0 0 1019.0 - 0.0
18/12:00am 12.8 12.5 8.5 75 2.2 WSW 0 0 0 0 1019.1 1017.6 0.0
 
Date/Time
EST
Temp
°C
App
Temp
°C
Dew
Point
Rel
Hum
%
Delta-T
°C
Wind Press
QNH
hPa
Press
MSL
hPa
Rain
since 9 am
mm
Dir
 
Spd
km/h
Gust
km/h
Spd
kts
Gust
kts
17/11:30pm 12.2 10.3 7.5 73 2.3 WSW 7 7 4 4 1019.2 - 0.0
17/11:00pm 13.9 12.3 7.9 67 3.0 WSW 6 7 3 4 1019.3 - 0.0
17/10:30pm 13.5 11.4 6.8 64 3.3 SSW 7 9 4 5 1019.3 - 0.0
17/10:00pm 16.6 16.0 7.5 55 4.6 CALM 0 0 0 0 1019.2 - 0.0
17/09:30pm 16.3 15.9 8.3 59 4.1 CALM 0 0 0 0 1019.2 - 0.0
17/09:00pm 14.6 13.9 6.9 60 3.8 CALM 0 0 0 0 1019.1 1017.6 0.0
17/08:30pm 17.0 16.4 7.6 54 4.8 CALM 0 0 0 0 1018.8 - 0.0
17/08:00pm 17.7 16.9 8.0 53 5.0 SE 2 6 1 3 1018.6 - 0.0
17/07:30pm 18.0 16.5 8.3 53 5.1 S 6 7 3 4 1018.2 - 0.0
17/07:00pm 18.2 16.0 7.9 51 5.3 SSE 9 11 5 6 1017.8 - 0.0
17/06:30pm 19.5 17.3 7.9 47 6.1 SSE 9 11 5 6 1017.3 - 0.0
17/06:00pm 21.5 18.9 7.7 41 7.3 S 11 13 6 7 1017.0 1015.5 0.0
17/05:30pm 23.9 20.4 7.1 34 8.9 SSE 15 19 8 10 1016.8 - 0.0
17/05:00pm 25.2 22.1 7.3 32 9.6 SSE 13 17 7 9 1016.6 - 0.0
17/04:30pm 25.9 22.4 7.0 30 10.1 S 15 20 8 11 1016.4 - 0.0
17/04:00pm 26.8 22.6 7.3 29 10.5 S 19 28 10 15 1016.3 - 0.0
17/03:30pm 25.9 21.9 6.5 29 10.3 SSW 17 22 9 12 1016.3 - 0.0
17/03:00pm 25.8 22.3 7.4 31 9.9 SSW 15 20 8 11 1016.4 1014.9 0.0
17/02:30pm 26.7 23.3 7.7 30 10.3 SW 15 22 8 12 1016.5 - 0.0
17/02:00pm 26.0 22.5 7.1 30 10.1 SW 15 24 8 13 1016.6 - 0.0
17/01:30pm 27.1 23.9 8.5 31 10.2 SSW 15 26 8 14 1016.9 - 0.0
17/01:00pm 26.2 24.2 8.7 33 9.6 SW 9 13 5 7 1017.5 - 0.0
17/12:30pm 25.2 23.1 8.2 34 9.2 SSW 9 17 5 9 1017.9 - 0.0
17/12:00pm 25.7 22.7 7.8 32 9.7 SW 13 20 7 11 1018.4 1016.9 0.0
17/11:30am 25.9 24.3 8.8 34 9.4 W 7 13 4 7 1018.8 - 0.0
17/11:00am 25.5 23.6 8.9 35 9.1 ESE 9 15 5 8 1019.2 - 0.0
17/10:30am 24.6 22.8 8.1 35 8.9 E 7 13 4 7 1019.5 - 0.0
17/10:00am 24.0 22.5 8.4 37 8.4 ESE 6 11 3 6 1019.4 - 0.0
17/09:30am 23.2 22.6 11.6 48 6.6 E 6 7 3 4 1019.5 - 0.0
17/09:00am 21.3 21.5 11.9 55 5.3 W 2 7 1 4 1019.6 1018.1 0.2
17/08:30am 19.5 19.6 11.5 60 4.5 W 2 7 1 4 1019.5 - 0.2
17/08:00am 17.4 16.9 11.9 70 3.1 W 6 7 3 4 1019.3 - 0.2
17/07:30am 15.0 15.1 12.7 86 1.3 NNW 4 6 2 3 1019.2 - 0.2
17/07:00am 12.1 12.3 10.5 90 0.8 CALM 0 0 0 0 1018.8 - 0.2
17/06:30am 11.4 10.3 10.1 92 0.7 N 6 6 3 3 1018.4 - 0.2
17/06:00am 11.0 9.9 9.8 92 0.6 N 6 7 3 4 1018.0 1016.4 0.2
17/05:30am 11.2 10.1 9.9 92 0.7 N 6 7 3 4 1017.8 - 0.2
17/05:00am 11.4 10.3 10.1 92 0.7 NNE 6 7 3 4 1017.7 - 0.2
17/04:30am 11.4 10.3 10.0 91 0.7 N 6 7 3 4 1017.5 - 0.2
17/04:00am 11.7 11.8 10.1 90 0.8 CALM 0 0 0 0 1017.4 - 0.2
17/03:30am 12.1 12.3 10.5 90 0.8 CALM 0 0 0 0 1017.3 - 0.2
17/03:00am 12.3 12.5 10.5 89 0.9 CALM 0 0 0 0 1017.0 1015.5 0.2
17/02:30am 12.6 12.1 10.7 88 1.0 N 4 7 2 4 1017.1 - 0.2
17/02:00am 12.1 10.8 9.8 86 1.2 WNW 7 7 4 4 1017.3 - 0.2
17/01:30am 12.9 13.0 10.3 84 1.4 CALM 0 0 0 0 1017.4 - 0.2
17/01:00am 13.7 14.0 11.0 84 1.4 CALM 0 0 0 0 1017.5 - 0.2
17/12:30am 12.7 11.9 9.7 82 1.6 WNW 4 6 2 3 1017.7 - 0.2
17/12:00am 14.4 14.5 10.2 76 2.2 CALM 0 0 0 0 1017.7 1016.1 0.2
 
Date/Time
EST
Temp
°C
App
Temp
°C
Dew
Point
Rel
Hum
%
Delta-T
°C
Wind Press
QNH
hPa
Press
MSL
hPa
Rain
since 9 am
mm
Dir
 
Spd
km/h
Gust
km/h
Spd
kts
Gust
kts
16/11:30pm 15.5 15.3 11.7 78 2.1 N 4 7 2 4 1017.6 - 0.2
16/11:00pm 14.2 13.2 10.4 78 2.0 NNE 6 7 3 4 1017.5 - 0.2
16/10:30pm 15.4 15.2 11.8 79 2.0 NE 4 7 2 4 1017.5 - 0.2
16/10:00pm 16.4 16.4 9.8 65 3.5 CALM 0 0 0 0 1017.4 - 0.2
16/09:30pm 17.7 18.2 11.5 67 3.4 CALM 0 0 0 0 1017.3 - 0.2
16/09:00pm 17.2 17.4 11.7 70 3.0 NNE 2 6 1 3 1017.0 1015.5 0.2
16/08:30pm 18.7 17.9 11.0 61 4.2 ESE 6 7 3 4 1016.8 - 0.2
16/08:00pm 18.7 17.7 11.0 61 4.2 SE 7 7 4 4 1016.4 - 0.2
16/07:30pm 19.0 17.6 10.8 59 4.5 SSE 9 13 5 7 1016.2 - 0.2
16/07:00pm 20.2 18.9 11.4 57 4.9 SSE 9 13 5 7 1015.9 - 0.2
16/06:30pm 20.3 18.9 11.0 55 5.2 S 9 11 5 6 1015.6 - 0.2
16/06:00pm 22.0 20.1 10.5 48 6.4 SSW 11 11 6 6 1015.5 1014.0 0.2
16/05:30pm 24.6 22.2 10.1 40 8.1 S 13 17 7 9 1015.2 - 0.2
16/05:00pm 25.7 22.6 10.3 38 8.7 S 17 20 9 11 1014.9 - 0.2
16/04:30pm 26.4 24.2 10.9 38 8.9 SSE 13 20 7 11 1014.7 - 0.2
16/04:00pm 26.6 23.5 11.5 39 8.7 SSE 19 24 10 13 1014.8 - 0.2
16/03:30pm 27.2 23.6 10.0 34 9.7 SW 19 26 10 14 1015.0 - 0.2
16/03:00pm 27.2 24.7 11.2 36 9.2 S 15 22 8 12 1014.9 1013.3 0.2
16/02:30pm 26.8 25.2 11.7 39 8.8 SSW 11 19 6 10 1015.1 - 0.2
16/02:00pm 26.2 24.8 12.3 42 8.1 S 11 22 6 12 1015.2 - 0.2
16/01:30pm 26.1 24.2 12.9 44 7.8 SSW 15 24 8 13 1015.4 - 0.2
16/01:00pm 26.4 25.5 14.8 49 7.1 S 13 19 7 10 1015.7 - 0.2
16/12:30pm 25.2 25.3 15.5 55 5.9 S 9 17 5 9 1016.1 - 0.2
16/12:00pm 24.5 24.0 14.9 55 5.8 WSW 11 15 6 8 1016.6 1015.1 0.2
16/11:30am 24.2 23.9 14.3 54 5.9 S 9 15 5 8 1017.1 - 0.2
16/11:00am 24.8 25.3 15.1 54 5.9 W 6 9 3 5 1017.4 - 0.2
16/10:30am 23.3 23.3 15.1 60 5.0 SSE 9 15 5 8 1017.7 - 0.2
16/10:00am 22.9 23.4 15.5 63 4.5 E 7 11 4 6 1018.0 - 0.2
16/09:30am 21.7 21.7 15.1 66 4.0 ESE 9 13 5 7 1018.3 - 0.0
16/09:00am 20.4 19.8 14.7 70 3.4 ESE 11 15 6 8 1018.0 1016.4 0.0
16/08:30am 19.7 19.7 15.1 75 2.7 SE 9 13 5 7 1017.9 - 0.0
16/08:00am 18.1 17.5 14.6 80 2.1 SE 11 13 6 7 1017.9 - 0.0
16/07:30am 17.0 16.5 14.8 87 1.3 SSE 11 17 6 9 1017.8 - 0.0
16/07:20am 16.6 16.1 15.0 90 0.9 SSE 11 13 6 7 1017.7 - 0.0
16/07:00am 16.4 16.9 15.6 95 0.5 SE 7 13 4 7 1017.4 - 0.0
16/06:38am 15.7 15.6 14.9 95 0.5 SSE 9 11 5 6 1017.0 - 0.0
16/06:30am 15.6 15.4 14.8 95 0.5 S 9 13 5 7 1016.8 - 0.0
16/06:18am 15.4 14.4 14.6 95 0.5 S 13 15 7 8 1016.7 - 0.0
16/06:17am 15.3 14.3 14.5 95 0.5 S 13 15 7 8 1016.7 - 0.0
16/06:16am 15.3 14.7 14.5 95 0.5 S 11 15 6 8 1016.7 - 0.0
16/06:00am 13.7 13.3 12.4 92 0.7 ESE 6 17 3 9 1016.3 1014.8 0.0
16/05:51am 14.0 14.5 12.9 93 0.6 NE 2 6 1 3 1016.0 - 0.0
16/05:30am 14.9 15.0 13.8 93 0.6 NNE 6 7 3 4 1015.6 - 0.0
16/05:00am 14.8 14.6 13.7 93 0.6 NNE 7 9 4 5 1015.5 - 0.0
16/04:30am 15.0 14.5 13.9 93 0.6 N 9 11 5 6 1015.4 - 0.0
16/04:00am 15.0 14.5 13.9 93 0.6 N 9 11 5 6 1015.3 - 0.0
16/03:30am 15.1 15.2 14.0 93 0.6 NNW 6 9 3 5 1015.2 - 0.0
16/03:00am 15.0 14.9 13.4 90 0.9 WNW 6 7 3 4 1015.4 1013.8 0.0
16/02:30am 16.1 16.4 14.6 91 0.9 NW 6 7 3 4 1015.6 - 0.0
16/02:00am 16.4 16.2 14.8 90 0.9 NW 9 11 5 6 1015.9 - 0.0
16/01:30am 16.8 17.2 15.3 91 0.9 W 7 9 4 5 1016.2 - 0.0
16/01:00am 16.5 16.8 14.9 90 0.9 SSW 7 9 4 5 1016.5 - 0.0
16/12:30am 16.6 18.1 14.6 88 1.2 CALM 0 0 0 0 1016.7 - 0.0
16/12:00am 17.2 18.7 14.7 85 1.5 CALM 0 0 0 0 1016.5 1015.0 0.0
 
Date/Time
EST
Temp
°C
App
Temp
°C
Dew
Point
Rel
Hum
%
Delta-T
°C
Wind Press
QNH
hPa
Press
MSL
hPa
Rain
since 9 am
mm
Dir
 
Spd
km/h
Gust
km/h
Spd
kts
Gust
kts
15/11:30pm 18.0 18.3 15.1 83 1.7 SE 7 9 4 5 1016.7 - 0.0
15/11:00pm 18.4 19.1 15.5 83 1.7 SSE 6 9 3 5 1017.0 - 0.0
15/10:30pm 18.5 19.1 15.2 81 2.0 SE 6 7 3 4 1017.1 - 0.0
15/10:00pm 18.6 18.6 15.3 81 2.0 SSE 9 11 5 6 1017.1 - 0.0
15/09:30pm 18.8 19.1 15.1 79 2.2 SE 7 9 4 5 1017.4 - 0.0
15/09:00pm 18.9 19.4 15.0 78 2.3 SSE 6 9 3 5 1017.3 1015.7 0.0
15/08:30pm 19.1 18.0 15.2 78 2.3 S 15 19 8 10 1016.5 - 0.0
15/08:00pm 19.4 17.9 15.3 77 2.4 SSE 17 24 9 13 1016.1 - 0.0
15/07:30pm 20.2 17.3 14.1 68 3.6 S 22 35 12 19 1016.1 - 0.0
15/07:00pm 19.8 19.4 14.0 69 3.4 ESE 9 15 5 8 1015.6 - 0.0
15/06:30pm 19.8 17.7 14.8 73 3.0 ESE 19 22 10 12 1015.3 - 0.0
15/06:00pm 20.1 18.4 14.7 71 3.2 SSW 17 28 9 15 1015.5 1014.0 0.0
15/05:30pm 20.6 18.4 14.3 67 3.7 S 19 43 10 23 1015.0 - 0.0
15/05:00pm 24.4 23.6 13.9 52 6.3 N 11 15 6 8 1014.4 - 0.0
15/04:30pm 25.9 24.1 13.4 46 7.4 NNE 15 20 8 11 1013.7 - 0.0
15/04:00pm 26.0 24.1 14.1 47 7.2 NNE 17 20 9 11 1013.7 - 0.0
15/03:30pm 26.3 24.3 15.0 49 6.9 NNE 19 26 10 14 1013.6 - 0.0

Other Formats:

Comma delimited format used in spreadsheet applications
http://www.bom.gov.au/fwo/IDQ60801/IDQ60801.94515.axf

JavaScript Object Notation format (JSON) in row-major order
http://www.bom.gov.au/fwo/IDQ60801/IDQ60801.94515.json